createdAt,value
2018-08-28T00:00:34.089Z,3.10
2018-08-28T00:03:03.924Z,2.83
2018-08-28T00:05:34.538Z,3.20
2018-08-28T00:08:04.386Z,3.00
2018-08-28T00:10:34.137Z,3.00
2018-08-28T00:13:04.306Z,2.90
2018-08-28T00:15:36.313Z,2.57
2018-08-28T00:18:06.553Z,3.10
2018-08-28T00:20:36.149Z,2.70
2018-08-28T00:23:05.902Z,3.03
2018-08-28T00:25:36.760Z,3.17
2018-08-28T00:28:06.327Z,3.40
2018-08-28T00:30:35.976Z,2.97
2018-08-28T00:33:06.177Z,3.10
2018-08-28T00:35:35.749Z,2.80
2018-08-28T00:38:05.359Z,3.20
2018-08-28T00:40:35.557Z,3.17
2018-08-28T00:43:05.334Z,2.83
2018-08-28T00:45:35.131Z,3.00
2018-08-28T00:48:05.041Z,3.00
2018-08-28T00:50:34.670Z,2.80
2018-08-28T00:53:04.549Z,2.70
2018-08-28T00:55:34.827Z,3.00
2018-08-28T00:58:04.874Z,3.33
2018-08-28T01:00:34.651Z,2.70
2018-08-28T01:03:04.374Z,2.87
2018-08-28T01:05:33.981Z,2.57
2018-08-28T01:08:03.865Z,3.50
2018-08-28T01:10:33.809Z,2.73
2018-08-28T01:13:03.875Z,2.90
2018-08-28T01:15:33.806Z,3.43
2018-08-28T01:18:03.397Z,2.87
2018-08-28T01:20:33.304Z,2.83
2018-08-28T01:23:03.041Z,2.90
2018-08-28T01:25:32.533Z,3.07
2018-08-28T01:28:03.677Z,2.80
2018-08-28T01:30:34.649Z,3.23
2018-08-28T01:33:06.213Z,3.13
2018-08-28T01:35:36.229Z,3.07
2018-08-28T01:38:05.800Z,3.20
2018-08-28T01:40:35.521Z,3.10
2018-08-28T01:43:10.904Z,2.90
2018-08-28T01:45:40.766Z,3.40
2018-08-28T01:48:10.608Z,3.37
2018-08-28T01:50:40.393Z,3.17
2018-08-28T01:53:09.879Z,2.87
2018-08-28T01:55:39.398Z,3.33
2018-08-28T01:58:09.821Z,3.67
2018-08-28T02:00:39.893Z,3.57
2018-08-28T02:03:09.559Z,3.10
2018-08-28T02:05:39.754Z,3.17
2018-08-28T02:08:09.495Z,3.00
2018-08-28T02:10:39.119Z,3.90
2018-08-28T02:13:09.050Z,3.10
2018-08-28T02:15:39.120Z,3.17
2018-08-28T02:18:08.602Z,3.27
2018-08-28T02:20:38.916Z,3.13
2018-08-28T02:23:08.678Z,3.87
2018-08-28T02:25:38.925Z,3.97
2018-08-28T02:28:08.717Z,3.80
2018-08-28T02:30:38.354Z,3.33
2018-08-28T02:33:07.995Z,3.37
2018-08-28T02:35:37.780Z,3.40
2018-08-28T02:38:07.382Z,3.77
2018-08-28T02:40:37.003Z,3.40
2018-08-28T02:43:07.042Z,3.80
2018-08-28T02:45:36.825Z,3.40
2018-08-28T02:48:06.397Z,3.60
2018-08-28T02:50:36.662Z,3.47
2018-08-28T02:53:06.319Z,3.47
2018-08-28T02:55:35.786Z,2.97
2018-08-28T02:58:05.962Z,3.90
2018-08-28T03:00:35.867Z,3.30
2018-08-28T03:03:05.535Z,3.80
2018-08-28T03:05:35.413Z,3.40
2018-08-28T03:08:05.330Z,3.90
2018-08-28T03:10:35.090Z,4.00
2018-08-28T03:13:04.746Z,3.60
2018-08-28T03:15:35.091Z,3.90
2018-08-28T03:18:04.708Z,4.23
2018-08-28T03:20:34.599Z,3.40
2018-08-28T03:23:04.429Z,4.10
2018-08-28T03:25:34.161Z,3.67
2018-08-28T03:28:04.030Z,3.60
2018-08-28T03:30:33.941Z,3.67
2018-08-28T03:33:03.541Z,3.97
2018-08-28T03:35:33.466Z,3.67
2018-08-28T03:38:03.088Z,3.90
2018-08-28T03:40:32.681Z,4.23
2018-08-28T03:43:02.853Z,3.97
2018-08-28T03:45:36.106Z,3.33
2018-08-28T03:48:06.053Z,3.63
2018-08-28T03:50:35.806Z,4.60
2018-08-28T03:53:05.795Z,4.30
2018-08-28T03:55:35.881Z,4.57
2018-08-28T03:58:05.478Z,4.87
2018-08-28T04:00:36.867Z,4.37
2018-08-28T04:03:06.398Z,3.53
2018-08-28T04:05:36.016Z,4.20
2018-08-28T04:08:05.745Z,4.70
2018-08-28T04:10:35.565Z,5.30
2018-08-28T04:13:05.057Z,3.80
2018-08-28T04:15:35.210Z,4.50
2018-08-28T04:18:05.111Z,4.40
2018-08-28T04:20:34.816Z,4.10
2018-08-28T04:23:04.326Z,4.60
2018-08-28T04:25:34.813Z,4.93
2018-08-28T04:28:04.348Z,4.77
2018-08-28T04:30:34.006Z,5.30
2018-08-28T04:33:04.455Z,4.90
2018-08-28T04:35:34.254Z,4.10
2018-08-28T04:38:03.994Z,4.43
2018-08-28T04:40:33.982Z,4.23
2018-08-28T04:43:03.946Z,4.50
2018-08-28T04:45:33.834Z,4.67
2018-08-28T04:48:03.839Z,5.40
2018-08-28T04:50:33.564Z,4.80
2018-08-28T04:53:03.921Z,4.40
2018-08-28T04:55:33.887Z,3.67
2018-08-28T04:58:03.934Z,3.93
2018-08-28T05:00:34.248Z,4.00
2018-08-28T05:03:06.031Z,4.50
2018-08-28T05:05:36.079Z,3.67
2018-08-28T05:08:06.323Z,3.97
2018-08-28T05:10:36.482Z,4.83
2018-08-28T05:13:06.423Z,4.87
2018-08-28T05:15:36.107Z,4.93
2018-08-28T05:18:06.333Z,5.03
2018-08-28T05:20:35.978Z,4.83
2018-08-28T05:23:17.545Z,4.70
2018-08-28T05:26:00.695Z,4.20
2018-08-28T05:28:42.385Z,4.60
2018-08-28T05:31:12.427Z,5.63
2018-08-28T05:33:42.094Z,5.40
2018-08-28T05:36:13.289Z,5.90
2018-08-28T05:38:42.882Z,5.17
2018-08-28T05:41:12.960Z,5.00
2018-08-28T05:43:42.750Z,4.80
2018-08-28T05:46:12.587Z,5.00
2018-08-28T05:48:42.621Z,5.80
2018-08-28T05:51:13.838Z,6.10
2018-08-28T05:53:43.448Z,5.40
2018-08-28T05:56:13.145Z,5.90
2018-08-28T05:58:43.090Z,5.33
2018-08-28T06:01:12.770Z,4.93
2018-08-28T06:03:42.632Z,5.37
2018-08-28T06:06:12.829Z,5.53
2018-08-28T06:08:43.010Z,5.87
2018-08-28T06:11:12.867Z,5.63
2018-08-28T06:13:42.792Z,5.73
2018-08-28T06:16:12.987Z,6.00
2018-08-28T06:18:43.482Z,6.50
2018-08-28T06:21:13.562Z,5.80
2018-08-28T06:23:43.579Z,6.40
2018-08-28T06:26:13.500Z,6.60
2018-08-28T06:28:43.462Z,6.23
2018-08-28T06:31:13.774Z,5.20
2018-08-28T06:33:44.073Z,6.47
2018-08-28T06:36:14.438Z,6.10
2018-08-28T06:38:44.289Z,5.73
2018-08-28T06:41:14.547Z,6.20
2018-08-28T06:43:44.514Z,5.73
2018-08-28T06:46:14.199Z,6.50
2018-08-28T06:48:44.246Z,6.30
2018-08-28T06:51:14.475Z,6.67
2018-08-28T06:53:45.210Z,6.27
2018-08-28T06:56:15.266Z,6.20
2018-08-28T06:58:45.137Z,6.00
2018-08-28T07:01:15.321Z,6.30
2018-08-28T07:03:45.488Z,6.27
2018-08-28T07:06:16.150Z,7.20
2018-08-28T07:08:46.237Z,6.53
2018-08-28T07:11:16.170Z,6.43
2018-08-28T07:13:46.113Z,6.53
2018-08-28T07:16:17.400Z,7.70
2018-08-28T07:18:47.597Z,7.43
2018-08-28T07:21:17.518Z,7.40
2018-08-28T07:23:48.600Z,6.90
2018-08-28T07:26:18.541Z,7.40
2018-08-28T07:28:48.475Z,7.23
2018-08-28T07:31:19.778Z,7.20
2018-08-28T07:33:49.935Z,8.03
2018-08-28T07:36:20.750Z,8.07
2018-08-28T07:38:50.722Z,7.37
2018-08-28T07:41:20.842Z,7.63
2018-08-28T07:43:51.501Z,8.10
2018-08-28T07:46:21.892Z,7.73
2018-08-28T07:48:51.923Z,7.20
2018-08-28T07:51:22.006Z,7.10
2018-08-28T07:53:52.303Z,7.37
2018-08-28T07:56:22.335Z,8.23
2018-08-28T07:58:52.500Z,8.43
2018-08-28T08:01:22.380Z,7.33
2018-08-28T08:03:52.316Z,7.57
2018-08-28T08:06:22.295Z,8.30
2018-08-28T08:08:52.179Z,7.93
2018-08-28T08:11:21.931Z,7.83
2018-08-28T08:13:52.141Z,7.37
2018-08-28T08:16:22.008Z,7.67
2018-08-28T08:18:51.973Z,7.57
2018-08-28T08:21:21.547Z,9.10
2018-08-28T08:23:51.230Z,7.50
2018-08-28T08:26:21.097Z,8.10
2018-08-28T08:28:51.325Z,11.97
2018-08-28T08:31:21.491Z,6.93
2018-08-28T08:33:51.511Z,6.40
2018-08-28T08:36:21.329Z,7.40
2018-08-28T08:38:51.202Z,8.47
2018-08-28T08:41:21.190Z,8.10
2018-08-28T08:43:51.297Z,6.80
2018-08-28T08:46:21.458Z,6.77
2018-08-28T08:48:51.130Z,7.33
2018-08-28T08:51:21.086Z,7.10
2018-08-28T08:53:51.119Z,8.27
2018-08-28T08:56:20.935Z,7.07
2018-08-28T08:58:50.850Z,7.50
2018-08-28T09:01:21.359Z,6.80
2018-08-28T09:03:51.159Z,7.90
2018-08-28T09:06:21.177Z,7.60
2018-08-28T09:08:51.244Z,7.00
2018-08-28T09:11:21.332Z,6.37
2018-08-28T09:13:51.374Z,6.57
2018-08-28T09:16:22.146Z,7.20
2018-08-28T09:18:51.987Z,6.53
2018-08-28T09:21:22.630Z,5.40
2018-08-28T09:23:52.821Z,5.43
2018-08-28T09:26:22.825Z,6.40
2018-08-28T09:28:52.730Z,6.30
2018-08-28T09:31:23.604Z,5.17
2018-08-28T09:33:53.554Z,5.77
2018-08-28T09:36:23.666Z,5.87
2018-08-28T09:38:53.456Z,4.83
2018-08-28T09:41:23.648Z,5.33
2018-08-28T09:43:53.972Z,5.33
2018-08-28T09:46:24.058Z,4.53
2018-08-28T09:48:54.061Z,5.23
2018-08-28T09:51:24.073Z,5.73
2018-08-28T09:53:54.044Z,5.70
2018-08-28T09:56:25.605Z,5.67
2018-08-28T09:58:55.327Z,5.10
2018-08-28T10:01:30.717Z,5.63
2018-08-28T10:04:00.858Z,5.40
2018-08-28T10:06:31.119Z,5.67
2018-08-28T10:09:01.067Z,5.57
2018-08-28T10:11:31.568Z,5.00
2018-08-28T10:14:01.658Z,4.27
2018-08-28T10:16:32.170Z,5.80
2018-08-28T10:19:02.164Z,4.83
2018-08-28T10:21:32.081Z,5.60
2018-08-28T10:24:02.393Z,5.50
2018-08-28T10:26:32.561Z,4.70
2018-08-28T10:29:02.550Z,4.70
2018-08-28T10:31:33.026Z,3.93
2018-08-28T10:34:03.066Z,4.90
2018-08-28T10:36:33.204Z,4.60
2018-08-28T10:39:03.627Z,3.90
2018-08-28T10:41:33.404Z,6.77
2018-08-28T10:44:03.898Z,4.80
2018-08-28T10:46:33.835Z,4.77
2018-08-28T10:49:03.943Z,4.13
2018-08-28T10:51:33.601Z,4.10
2018-08-28T10:54:03.523Z,4.50
2018-08-28T10:56:33.277Z,4.80
2018-08-28T10:59:03.662Z,4.87
2018-08-28T11:01:33.710Z,4.00
2018-08-28T11:04:03.412Z,3.80
2018-08-28T11:06:33.602Z,3.40
2018-08-28T11:09:03.689Z,3.47
2018-08-28T11:11:34.610Z,4.57
2018-08-28T11:14:04.743Z,3.57
2018-08-28T11:16:35.023Z,3.30
2018-08-28T11:19:05.523Z,3.90
2018-08-28T11:21:35.314Z,4.20
2018-08-28T11:24:07.514Z,3.80
2018-08-28T11:26:37.308Z,3.30
2018-08-28T11:29:06.714Z,3.77
2018-08-28T11:31:36.381Z,3.97
2018-08-28T11:34:06.496Z,4.00
2018-08-28T11:36:36.730Z,3.37
2018-08-28T11:39:07.821Z,4.13
2018-08-28T11:41:41.307Z,3.40
2018-08-28T11:44:13.765Z,4.30
2018-08-28T11:46:43.626Z,3.80
2018-08-28T11:49:14.921Z,4.10
2018-08-28T11:51:44.714Z,4.43
2018-08-28T11:54:14.349Z,4.40
2018-08-28T11:56:44.479Z,4.20
2018-08-28T11:59:17.526Z,3.90
2018-08-28T12:01:47.446Z,3.47
2018-08-28T12:04:17.641Z,4.20
2018-08-28T12:06:48.281Z,4.40
2018-08-28T12:09:18.303Z,4.60
2018-08-28T12:11:48.395Z,4.80
2018-08-28T12:14:18.657Z,4.27
2018-08-28T12:16:49.342Z,4.40
2018-08-28T12:19:19.932Z,4.17
2018-08-28T12:21:50.667Z,3.40
2018-08-28T12:24:21.307Z,3.73
2018-08-28T12:26:51.077Z,3.70
2018-08-28T12:29:20.625Z,3.90
2018-08-28T12:31:50.565Z,4.17
2018-08-28T12:34:20.904Z,4.03
2018-08-28T12:36:50.995Z,5.27
2018-08-28T12:39:20.573Z,4.50
2018-08-28T12:41:50.943Z,4.07
2018-08-28T12:44:21.261Z,3.60
2018-08-28T12:46:51.491Z,4.73
2018-08-28T12:49:21.370Z,3.40
2018-08-28T12:51:51.326Z,4.13
2018-08-28T12:54:21.897Z,5.17
2018-08-28T12:56:51.979Z,4.10
2018-08-28T12:59:22.074Z,4.10
2018-08-28T13:01:56.334Z,3.90
2018-08-28T13:04:27.472Z,4.70
2018-08-28T13:06:57.824Z,4.40
2018-08-28T13:09:28.081Z,5.80
2018-08-28T13:11:58.140Z,4.10
2018-08-28T13:14:29.234Z,4.43
2018-08-28T13:16:59.237Z,4.37
2018-08-28T13:19:29.197Z,3.80
2018-08-28T13:21:59.414Z,3.97
2018-08-28T13:24:29.607Z,4.53
2018-08-28T13:26:59.480Z,5.13
2018-08-28T13:29:29.613Z,4.50
2018-08-28T13:32:00.322Z,4.40
2018-08-28T13:34:30.356Z,4.60
2018-08-28T13:37:00.345Z,4.17
2018-08-28T13:39:30.426Z,4.27
2018-08-28T13:42:00.186Z,4.37
2018-08-28T13:44:30.032Z,4.13
2018-08-28T13:47:00.085Z,5.40
2018-08-28T13:49:30.302Z,4.73
2018-08-28T13:52:12.383Z,5.03
2018-08-28T13:54:42.063Z,4.33
2018-08-28T13:57:11.919Z,4.90
2018-08-28T13:59:42.288Z,4.27
2018-08-28T14:02:12.515Z,4.90
2018-08-28T14:04:43.175Z,4.17
2018-08-28T14:07:13.845Z,4.97
2018-08-28T14:09:43.601Z,4.00
2018-08-28T14:12:13.293Z,5.03
2018-08-28T14:14:43.311Z,5.23
2018-08-28T14:17:13.706Z,4.03
2018-08-28T14:19:43.866Z,5.17
2018-08-28T14:22:13.913Z,4.60
2018-08-28T14:24:44.077Z,4.60
2018-08-28T14:27:42.966Z,3.80
2018-08-28T14:30:14.042Z,4.47
2018-08-28T14:32:45.606Z,5.27
2018-08-28T14:35:15.937Z,5.20
2018-08-28T14:37:46.001Z,5.40
2018-08-28T14:40:16.245Z,5.50
2018-08-28T14:42:46.549Z,4.73
2018-08-28T14:45:16.501Z,3.93
2018-08-28T14:47:47.025Z,4.67
2018-08-28T14:50:29.659Z,5.73
2018-08-28T14:52:59.938Z,4.30
2018-08-28T14:55:30.602Z,4.70
2018-08-28T14:58:14.835Z,4.57
2018-08-28T15:00:47.818Z,4.97
2018-08-28T15:03:32.750Z,4.10
2018-08-28T15:06:02.220Z,4.57
2018-08-28T15:08:31.885Z,4.67
2018-08-28T15:11:01.447Z,4.90
2018-08-28T15:13:31.193Z,4.50
2018-08-28T15:16:01.102Z,4.60
2018-08-28T15:18:31.608Z,4.10
2018-08-28T15:21:01.100Z,4.30
2018-08-28T15:23:31.426Z,3.97
2018-08-28T15:26:01.251Z,4.63
2018-08-28T15:28:31.310Z,3.90
2018-08-28T15:31:01.058Z,4.10
2018-08-28T15:33:31.310Z,4.60
2018-08-28T15:36:01.458Z,4.77
2018-08-28T15:38:31.781Z,4.70
2018-08-28T15:41:01.509Z,4.50
2018-08-28T15:43:31.849Z,4.53
2018-08-28T15:46:01.872Z,3.70
2018-08-28T15:48:31.973Z,4.30
2018-08-28T15:51:01.869Z,4.63
2018-08-28T15:53:31.731Z,4.03
2018-08-28T15:56:01.779Z,4.37
2018-08-28T15:58:31.835Z,3.93
2018-08-28T16:01:02.095Z,3.73
2018-08-28T16:03:43.376Z,3.80
2018-08-28T16:06:13.251Z,4.47
2018-08-28T16:08:44.631Z,3.90
2018-08-28T16:11:15.130Z,4.17
2018-08-28T16:13:45.015Z,4.10
2018-08-28T16:16:14.906Z,3.63
2018-08-28T16:18:45.349Z,4.13
2018-08-28T16:21:15.373Z,3.80
2018-08-28T16:23:47.058Z,4.10
2018-08-28T16:26:17.165Z,4.10
2018-08-28T16:28:47.429Z,4.30
2018-08-28T16:31:17.291Z,4.27
2018-08-28T16:33:48.712Z,4.57
2018-08-28T16:36:18.556Z,4.10
2018-08-28T16:38:49.529Z,4.50
2018-08-28T16:41:19.773Z,4.27
2018-08-28T16:43:49.589Z,4.63
2018-08-28T16:46:19.899Z,4.77
2018-08-28T16:48:51.235Z,4.00
2018-08-28T16:51:32.075Z,4.63
2018-08-28T16:54:08.250Z,4.20
2018-08-28T16:56:38.204Z,5.30
2018-08-28T16:59:08.389Z,5.30
2018-08-28T17:01:38.352Z,5.23
2018-08-28T17:04:09.884Z,4.87
2018-08-28T17:06:41.078Z,4.57
2018-08-28T17:09:11.135Z,4.43
2018-08-28T17:11:40.775Z,4.20
2018-08-28T17:14:10.511Z,4.30
2018-08-28T17:16:40.490Z,3.73
2018-08-28T17:19:11.350Z,4.90
2018-08-28T17:21:41.349Z,4.20
2018-08-28T17:24:11.515Z,4.13
2018-08-28T17:26:41.485Z,4.47
2018-08-28T17:29:11.358Z,4.70
2018-08-28T17:31:41.589Z,5.13
2018-08-28T17:34:11.927Z,4.60
2018-08-28T17:36:42.747Z,5.33
2018-08-28T17:39:12.620Z,4.20
2018-08-28T17:41:43.120Z,4.37
2018-08-28T17:44:13.410Z,4.17
2018-08-28T17:46:43.807Z,5.13
2018-08-28T17:49:14.896Z,4.63
2018-08-28T17:51:44.946Z,4.90
2018-08-28T17:54:14.943Z,5.17
2018-08-28T17:56:45.011Z,4.87
2018-08-28T17:59:15.399Z,5.47
2018-08-28T18:01:45.710Z,5.13
2018-08-28T18:04:17.070Z,4.67
2018-08-28T18:06:47.609Z,5.10
2018-08-28T18:09:17.330Z,4.60
2018-08-28T18:11:47.279Z,4.80
2018-08-28T18:14:17.238Z,4.53
2018-08-28T18:16:46.990Z,4.90
2018-08-28T18:19:16.859Z,4.90
2018-08-28T18:21:47.026Z,5.00
2018-08-28T18:24:16.922Z,4.27
2018-08-28T18:26:46.638Z,4.20
2018-08-28T18:29:16.415Z,4.10
2018-08-28T18:31:46.584Z,5.40
2018-08-28T18:34:16.786Z,5.00
2018-08-28T18:36:46.575Z,5.30
2018-08-28T18:39:16.867Z,4.60
2018-08-28T18:41:47.065Z,5.03
2018-08-28T18:44:17.320Z,4.30
2018-08-28T18:46:47.181Z,4.43
2018-08-28T18:49:17.541Z,4.60
2018-08-28T18:51:48.033Z,4.43
2018-08-28T18:54:18.074Z,4.40
2018-08-28T18:56:48.678Z,4.53
2018-08-28T18:59:18.854Z,4.60
2018-08-28T19:01:48.834Z,4.70
2018-08-28T19:04:19.487Z,4.10
2018-08-28T19:06:49.574Z,5.27
2018-08-28T19:09:20.178Z,4.63
2018-08-28T19:11:50.420Z,3.93
2018-08-28T19:14:20.541Z,4.90
2018-08-28T19:16:50.438Z,4.37
2018-08-28T19:19:20.637Z,4.13
2018-08-28T19:21:50.494Z,4.97
2018-08-28T19:24:21.062Z,4.33
2018-08-28T19:26:51.257Z,4.43
2018-08-28T19:29:21.210Z,4.40
2018-08-28T19:31:51.991Z,4.40
2018-08-28T19:34:23.129Z,4.23
2018-08-28T19:36:53.344Z,4.57
2018-08-28T19:39:23.326Z,4.13
2018-08-28T19:41:53.562Z,4.10
2018-08-28T19:44:23.906Z,4.60
2018-08-28T19:46:54.160Z,4.50
2018-08-28T19:49:25.204Z,4.40
2018-08-28T19:51:55.230Z,4.67
2018-08-28T19:54:25.086Z,4.77
2018-08-28T19:56:55.585Z,4.23
2018-08-28T19:59:25.433Z,4.13
2018-08-28T20:01:55.350Z,4.50
2018-08-28T20:04:25.389Z,4.40
2018-08-28T20:06:57.797Z,4.80
2018-08-28T20:09:27.847Z,4.70
2018-08-28T20:11:57.829Z,4.30
2018-08-28T20:14:28.170Z,4.37
2018-08-28T20:16:58.073Z,4.60
2018-08-28T20:19:28.024Z,5.30
2018-08-28T20:21:59.105Z,4.93
2018-08-28T20:24:29.410Z,4.60
2018-08-28T20:26:59.767Z,4.87
2018-08-28T20:29:30.105Z,4.73
2018-08-28T20:32:00.234Z,4.43
2018-08-28T20:34:30.142Z,5.27
2018-08-28T20:37:01.527Z,5.87
2018-08-28T20:39:31.870Z,5.70
2018-08-28T20:42:01.803Z,6.10
2018-08-28T20:44:31.358Z,6.17
2018-08-28T20:47:01.770Z,5.27
2018-08-28T20:49:31.534Z,5.53
2018-08-28T20:52:01.395Z,5.50
2018-08-28T20:54:31.023Z,6.50
2018-08-28T20:57:00.950Z,6.13
2018-08-28T20:59:30.834Z,6.97
2018-08-28T21:02:01.300Z,6.07
2018-08-28T21:04:31.278Z,5.50
2018-08-28T21:07:01.229Z,5.33
2018-08-28T21:09:31.165Z,5.57
2018-08-28T21:12:01.474Z,5.67
2018-08-28T21:14:31.420Z,5.90
2018-08-28T21:17:01.469Z,5.20
2018-08-28T21:19:31.269Z,5.70
2018-08-28T21:22:01.500Z,6.10
2018-08-28T21:24:31.038Z,7.47
2018-08-28T21:27:01.278Z,6.90
2018-08-28T21:29:31.079Z,7.77
2018-08-28T21:32:00.858Z,7.67
2018-08-28T21:34:30.851Z,7.43
2018-08-28T21:37:01.591Z,7.17
2018-08-28T21:39:31.650Z,7.00
2018-08-28T21:42:01.717Z,8.13
2018-08-28T21:44:31.358Z,7.63
2018-08-28T21:47:00.948Z,8.20
2018-08-28T21:49:30.590Z,7.37
2018-08-28T21:52:01.010Z,7.63
2018-08-28T21:54:30.998Z,6.50
2018-08-28T21:57:00.759Z,7.17
2018-08-28T21:59:30.794Z,7.00
2018-08-28T22:02:01.108Z,6.77
2018-08-28T22:04:30.915Z,6.20
2018-08-28T22:07:05.899Z,5.93
2018-08-28T22:09:35.598Z,6.03
2018-08-28T22:12:06.702Z,6.50
2018-08-28T22:14:36.690Z,6.70
2018-08-28T22:17:06.951Z,5.60
2018-08-28T22:19:36.958Z,6.00
2018-08-28T22:22:07.268Z,6.07
2018-08-28T22:24:37.411Z,6.80
2018-08-28T22:27:07.081Z,5.83
2018-08-28T22:29:37.031Z,6.10
2018-08-28T22:32:07.129Z,6.40
2018-08-28T22:34:36.935Z,6.67
2018-08-28T22:37:07.957Z,5.93
2018-08-28T22:39:37.848Z,6.57
2018-08-28T22:42:07.815Z,6.90
2018-08-28T22:44:37.769Z,6.10
2018-08-28T22:47:07.626Z,6.13
2018-08-28T22:49:38.145Z,5.57
2018-08-28T22:52:08.845Z,6.10
2018-08-28T22:54:39.544Z,6.03
2018-08-28T22:57:09.283Z,5.90
2018-08-28T22:59:40.164Z,5.50
2018-08-28T23:02:09.825Z,5.63
2018-08-28T23:04:39.918Z,5.70
2018-08-28T23:07:09.854Z,6.43
2018-08-28T23:09:39.427Z,5.87
2018-08-28T23:12:08.994Z,5.43
2018-08-28T23:14:38.779Z,5.60
2018-08-28T23:17:08.708Z,6.30
2018-08-28T23:19:38.481Z,5.67
2018-08-28T23:22:08.587Z,5.37
2018-08-28T23:24:38.269Z,5.30
2018-08-28T23:27:07.841Z,5.90
2018-08-28T23:29:38.362Z,5.20
2018-08-28T23:32:08.258Z,5.30
2018-08-28T23:34:37.771Z,6.00
2018-08-28T23:37:07.654Z,6.27
2018-08-28T23:39:38.297Z,5.67
2018-08-28T23:42:08.125Z,5.50
2018-08-28T23:44:37.745Z,5.70
2018-08-28T23:47:07.667Z,5.43
2018-08-28T23:49:37.808Z,5.77
2018-08-28T23:52:07.792Z,5.73
2018-08-28T23:54:38.182Z,5.80
2018-08-28T23:57:07.952Z,5.53
2018-08-28T23:59:37.872Z,5.40
